DAAJ/DJG METAR and TAF weather

Enter ICAO airport designator
Station Type Date Time Source
DAAJ METAR 2021/05/15 23:00 UTC NOAA

DAAJ 152300Z 07015KT 7000 FEW046 33/M01 Q1016


Station Type Date Time Source
DAAJ Decoded METAR 2021/05/15 23:00 UTC NOAA

Djanet, Algeria (DAAJ) 24-33N 009-28E 1054M
May 15, 2021 - 07:00 PM EDT / 2021.05.15 2300 UTC
Wind: from the ENE (070 degrees) at 17 MPH (15 KT):0
Visibility: 4 mile(s):0
Sky conditions: mostly clear
Temperature: 91 F (33 C)
Dew Point: 30 F (-1 C)
Relative Humidity: 11%
Pressure (altimeter): 30.00 in. Hg (1016 hPa)
ob: DAAJ 152300Z 07015KT 7000 FEW046 33/M01 Q1016
cycle: 23

Station Type Date Time Source
DAAJ TAF 2021/05/15 18:33 UTC NOAA

TAF DAAJ 151700Z 1518/1618 04014KT 7000 FEW046 PROB30
TEMPO 1518/1521 4000 SA FEW040TCU PROB30
TEMPO 1521/1604 04015G25KT 3000 DRSA

Example: see airport list